sensor_id;sensor_type;location;lat;lon;timestamp;temperature;humidity
25512;DHT22;13414;44.534;18.700;2023-02-03T00:01:03;4.60;30.40
25512;DHT22;13414;44.534;18.700;2023-02-03T00:03:30;4.60;1.00
25512;DHT22;13414;44.534;18.700;2023-02-03T00:05:59;4.60;1.00
25512;DHT22;13414;44.534;18.700;2023-02-03T00:08:27;4.60;99.90
25512;DHT22;13414;44.534;18.700;2023-02-03T00:10:55;4.60;99.90
25512;DHT22;13414;44.534;18.700;2023-02-03T00:13:24;4.60;99.90
25512;DHT22;13414;44.534;18.700;2023-02-03T00:15:51;4.50;8.80
25512;DHT22;13414;44.534;18.700;2023-02-03T00:18:19;4.50;1.00
25512;DHT22;13414;44.534;18.700;2023-02-03T00:20:46;4.60;1.00
25512;DHT22;13414;44.534;18.700;2023-02-03T00:23:14;4.60;1.00
25512;DHT22;13414;44.534;18.700;2023-02-03T00:25:41;4.60;1.00
25512;DHT22;13414;44.534;18.700;2023-02-03T00:28:08;4.60;99.90
25512;DHT22;13414;44.534;18.700;2023-02-03T00:30:38;4.70;1.00
25512;DHT22;13414;44.534;18.700;2023-02-03T00:33:05;4.60;99.90
25512;DHT22;13414;44.534;18.700;2023-02-03T00:35:36;4.60;99.90
25512;DHT22;13414;44.534;18.700;2023-02-03T00:38:03;4.60;99.90
25512;DHT22;13414;44.534;18.700;2023-02-03T00:40:31;4.40;99.90
25512;DHT22;13414;44.534;18.700;2023-02-03T00:42:58;4.40;1.00
25512;DHT22;13414;44.534;18.700;2023-02-03T00:45:26;4.30;1.00
25512;DHT22;13414;44.534;18.700;2023-02-03T00:47:54;4.30;99.90
25512;DHT22;13414;44.534;18.700;2023-02-03T00:50:22;4.30;1.00
25512;DHT22;13414;44.534;18.700;2023-02-03T00:52:49;4.30;1.00
25512;DHT22;13414;44.534;18.700;2023-02-03T00:55:17;4.20;1.00
25512;DHT22;13414;44.534;18.700;2023-02-03T00:57:44;4.20;99.90
25512;DHT22;13414;44.534;18.700;2023-02-03T01:00:14;4.10;1.00
25512;DHT22;13414;44.534;18.700;2023-02-03T01:02:42;4.00;1.00
25512;DHT22;13414;44.534;18.700;2023-02-03T01:05:11;4.00;99.90
25512;DHT22;13414;44.534;18.700;2023-02-03T01:07:38;4.00;1.00
25512;DHT22;13414;44.534;18.700;2023-02-03T01:10:06;4.00;99.90
25512;DHT22;13414;44.534;18.700;2023-02-03T01:12:34;3.90;1.00
25512;DHT22;13414;44.534;18.700;2023-02-03T01:15:01;3.90;99.90
25512;DHT22;13414;44.534;18.700;2023-02-03T01:17:29;3.90;1.00
25512;DHT22;13414;44.534;18.700;2023-02-03T01:19:56;3.80;99.90
25512;DHT22;13414;44.534;18.700;2023-02-03T01:22:27;3.80;99.90
25512;DHT22;13414;44.534;18.700;2023-02-03T01:24:55;3.80;99.90
25512;DHT22;13414;44.534;18.700;2023-02-03T01:27:23;3.90;1.00
25512;DHT22;13414;44.534;18.700;2023-02-03T01:29:50;3.90;1.00
25512;DHT22;13414;44.534;18.700;2023-02-03T01:32:18;4.00;1.00
25512;DHT22;13414;44.534;18.700;2023-02-03T01:34:45;4.10;1.00
25512;DHT22;13414;44.534;18.700;2023-02-03T01:37:13;4.10;1.00
25512;DHT22;13414;44.534;18.700;2023-02-03T01:39:43;4.10;99.90
25512;DHT22;13414;44.534;18.700;2023-02-03T01:42:12;4.10;99.90
25512;DHT22;13414;44.534;18.700;2023-02-03T01:44:44;4.10;1.00
25512;DHT22;13414;44.534;18.700;2023-02-03T01:47:17;4.10;1.00
25512;DHT22;13414;44.534;18.700;2023-02-03T01:49:51;4.20;1.00
25512;DHT22;13414;44.534;18.700;2023-02-03T01:52:20;4.20;99.90
25512;DHT22;13414;44.534;18.700;2023-02-03T01:54:51;4.10;1.00
25512;DHT22;13414;44.534;18.700;2023-02-03T01:57:23;4.10;1.00
25512;DHT22;13414;44.534;18.700;2023-02-03T01:59:54;4.00;1.00
25512;DHT22;13414;44.534;18.700;2023-02-03T02:02:23;3.90;99.90
25512;DHT22;13414;44.534;18.700;2023-02-03T02:04:57;3.80;99.90
25512;DHT22;13414;44.534;18.700;2023-02-03T02:07:28;3.80;1.00
25512;DHT22;13414;44.534;18.700;2023-02-03T02:09:57;3.80;1.00
25512;DHT22;13414;44.534;18.700;2023-02-03T02:12:25;3.80;1.00
25512;DHT22;13414;44.534;18.700;2023-02-03T02:14:53;3.80;1.00
25512;DHT22;13414;44.534;18.700;2023-02-03T02:17:43;3.80;12.20
25512;DHT22;13414;44.534;18.700;2023-02-03T02:26:41;3.80;1.00
25512;DHT22;13414;44.534;18.700;2023-02-03T02:32:35;3.70;1.00
25512;DHT22;13414;44.534;18.700;2023-02-03T02:35:17;3.60;99.90
25512;DHT22;13414;44.534;18.700;2023-02-03T02:37:51;3.50;1.00
25512;DHT22;13414;44.534;18.700;2023-02-03T02:40:24;3.50;20.70
25512;DHT22;13414;44.534;18.700;2023-02-03T02:43:01;3.40;1.00
25512;DHT22;13414;44.534;18.700;2023-02-03T02:45:35;3.40;99.90
25512;DHT22;13414;44.534;18.700;2023-02-03T02:48:14;3.30;61.50
25512;DHT22;13414;44.534;18.700;2023-02-03T02:50:45;3.30;99.90
25512;DHT22;13414;44.534;18.700;2023-02-03T02:53:14;3.30;1.00
25512;DHT22;13414;44.534;18.700;2023-02-03T02:55:44;3.10;1.00
25512;DHT22;13414;44.534;18.700;2023-02-03T02:58:14;3.10;1.00
25512;DHT22;13414;44.534;18.700;2023-02-03T03:00:43;3.00;1.00
25512;DHT22;13414;44.534;18.700;2023-02-03T03:03:14;3.00;30.50
25512;DHT22;13414;44.534;18.700;2023-02-03T03:05:47;3.00;99.90
25512;DHT22;13414;44.534;18.700;2023-02-03T03:08:22;2.90;99.90
25512;DHT22;13414;44.534;18.700;2023-02-03T03:10:53;2.90;99.90
25512;DHT22;13414;44.534;18.700;2023-02-03T03:13:24;2.90;99.90
25512;DHT22;13414;44.534;18.700;2023-02-03T03:15:55;2.80;99.90
25512;DHT22;13414;44.534;18.700;2023-02-03T03:18:28;2.80;99.90
25512;DHT22;13414;44.534;18.700;2023-02-03T03:21:01;2.80;99.90
25512;DHT22;13414;44.534;18.700;2023-02-03T03:23:33;2.70;99.90
25512;DHT22;13414;44.534;18.700;2023-02-03T03:26:09;2.70;99.90
25512;DHT22;13414;44.534;18.700;2023-02-03T03:28:44;2.60;99.90
25512;DHT22;13414;44.534;18.700;2023-02-03T03:31:13;2.60;99.90
25512;DHT22;13414;44.534;18.700;2023-02-03T03:33:43;2.50;99.90
25512;DHT22;13414;44.534;18.700;2023-02-03T03:36:17;2.50;99.90
25512;DHT22;13414;44.534;18.700;2023-02-03T03:38:49;2.50;99.90
25512;DHT22;13414;44.534;18.700;2023-02-03T03:41:26;2.50;99.90
25512;DHT22;13414;44.534;18.700;2023-02-03T03:43:57;2.60;99.90
25512;DHT22;13414;44.534;18.700;2023-02-03T03:46:29;2.60;99.90
25512;DHT22;13414;44.534;18.700;2023-02-03T03:49:02;2.60;99.90
25512;DHT22;13414;44.534;18.700;2023-02-03T03:51:33;2.50;99.90
25512;DHT22;13414;44.534;18.700;2023-02-03T03:54:04;2.50;99.90
25512;DHT22;13414;44.534;18.700;2023-02-03T03:56:37;2.50;99.90
25512;DHT22;13414;44.534;18.700;2023-02-03T03:59:06;2.40;99.90
25512;DHT22;13414;44.534;18.700;2023-02-03T04:01:35;2.40;99.90
25512;DHT22;13414;44.534;18.700;2023-02-03T04:04:07;2.30;99.90
25512;DHT22;13414;44.534;18.700;2023-02-03T04:06:37;2.20;99.90
25512;DHT22;13414;44.534;18.700;2023-02-03T04:09:05;2.20;99.90
25512;DHT22;13414;44.534;18.700;2023-02-03T04:11:32;2.20;99.90
25512;DHT22;13414;44.534;18.700;2023-02-03T04:14:17;2.20;99.90
25512;DHT22;13414;44.534;18.700;2023-02-03T04:16:45;2.20;99.90
25512;DHT22;13414;44.534;18.700;2023-02-03T04:19:19;2.10;99.90
25512;DHT22;13414;44.534;18.700;2023-02-03T04:21:47;2.10;99.90
25512;DHT22;13414;44.534;18.700;2023-02-03T04:24:15;2.00;99.90
25512;DHT22;13414;44.534;18.700;2023-02-03T04:26:42;1.90;99.90
25512;DHT22;13414;44.534;18.700;2023-02-03T04:29:10;1.80;99.90
25512;DHT22;13414;44.534;18.700;2023-02-03T04:31:38;1.70;99.90
25512;DHT22;13414;44.534;18.700;2023-02-03T04:34:05;1.70;99.90
25512;DHT22;13414;44.534;18.700;2023-02-03T04:36:34;1.70;99.90
25512;DHT22;13414;44.534;18.700;2023-02-03T04:39:02;1.70;99.90
25512;DHT22;13414;44.534;18.700;2023-02-03T04:41:29;1.70;99.90
25512;DHT22;13414;44.534;18.700;2023-02-03T04:43:56;1.70;99.90
25512;DHT22;13414;44.534;18.700;2023-02-03T04:46:24;1.70;99.90
25512;DHT22;13414;44.534;18.700;2023-02-03T04:48:51;1.60;99.90
25512;DHT22;13414;44.534;18.700;2023-02-03T04:51:19;1.50;99.90
25512;DHT22;13414;44.534;18.700;2023-02-03T04:53:47;1.50;99.90
25512;DHT22;13414;44.534;18.700;2023-02-03T04:56:15;1.60;99.90
25512;DHT22;13414;44.534;18.700;2023-02-03T04:58:42;1.60;99.90
25512;DHT22;13414;44.534;18.700;2023-02-03T05:01:10;1.60;99.90
25512;DHT22;13414;44.534;18.700;2023-02-03T05:03:37;1.70;99.90
25512;DHT22;13414;44.534;18.700;2023-02-03T05:06:05;1.80;99.90
25512;DHT22;13414;44.534;18.700;2023-02-03T05:08:33;1.80;99.90
25512;DHT22;13414;44.534;18.700;2023-02-03T05:11:02;1.90;99.90
25512;DHT22;13414;44.534;18.700;2023-02-03T05:13:29;2.00;99.90
25512;DHT22;13414;44.534;18.700;2023-02-03T05:15:56;2.10;99.90
25512;DHT22;13414;44.534;18.700;2023-02-03T05:18:24;2.20;99.90
25512;DHT22;13414;44.534;18.700;2023-02-03T05:20:51;2.10;99.90
25512;DHT22;13414;44.534;18.700;2023-02-03T05:23:19;2.20;99.90
25512;DHT22;13414;44.534;18.700;2023-02-03T05:25:46;2.30;99.90
25512;DHT22;13414;44.534;18.700;2023-02-03T05:28:16;2.40;99.90
25512;DHT22;13414;44.534;18.700;2023-02-03T05:30:44;2.40;99.90
25512;DHT22;13414;44.534;18.700;2023-02-03T05:33:12;2.50;99.90
25512;DHT22;13414;44.534;18.700;2023-02-03T05:35:39;2.60;99.90
25512;DHT22;13414;44.534;18.700;2023-02-03T05:38:06;2.60;1.00
25512;DHT22;13414;44.534;18.700;2023-02-03T05:40:34;2.60;99.90
25512;DHT22;13414;44.534;18.700;2023-02-03T05:43:20;2.60;99.90
25512;DHT22;13414;44.534;18.700;2023-02-03T05:45:48;2.40;1.00
25512;DHT22;13414;44.534;18.700;2023-02-03T05:48:15;2.40;1.00
25512;DHT22;13414;44.534;18.700;2023-02-03T05:50:42;2.30;1.00
25512;DHT22;13414;44.534;18.700;2023-02-03T05:53:10;2.20;1.00
25512;DHT22;13414;44.534;18.700;2023-02-03T05:55:37;2.20;1.00
25512;DHT22;13414;44.534;18.700;2023-02-03T05:58:06;2.20;50.90
25512;DHT22;13414;44.534;18.700;2023-02-03T06:00:35;2.20;1.00
25512;DHT22;13414;44.534;18.700;2023-02-03T06:03:02;2.30;84.50
25512;DHT22;13414;44.534;18.700;2023-02-03T06:05:31;2.40;1.50
25512;DHT22;13414;44.534;18.700;2023-02-03T06:08:00;2.40;1.00
25512;DHT22;13414;44.534;18.700;2023-02-03T06:10:27;2.40;1.00
25512;DHT22;13414;44.534;18.700;2023-02-03T06:12:55;2.50;1.00
25512;DHT22;13414;44.534;18.700;2023-02-03T06:15:23;2.50;1.00
25512;DHT22;13414;44.534;18.700;2023-02-03T06:17:52;2.50;1.00
25512;DHT22;13414;44.534;18.700;2023-02-03T06:20:20;2.50;1.00
25512;DHT22;13414;44.534;18.700;2023-02-03T06:22:47;2.50;99.90
25512;DHT22;13414;44.534;18.700;2023-02-03T06:25:15;2.50;4.60
25512;DHT22;13414;44.534;18.700;2023-02-03T06:27:42;2.50;99.90
25512;DHT22;13414;44.534;18.700;2023-02-03T06:30:11;2.40;89.50
25512;DHT22;13414;44.534;18.700;2023-02-03T06:32:38;2.50;1.00
25512;DHT22;13414;44.534;18.700;2023-02-03T06:35:08;2.40;1.00
25512;DHT22;13414;44.534;18.700;2023-02-03T06:37:35;2.40;1.00
25512;DHT22;13414;44.534;18.700;2023-02-03T06:40:04;2.30;1.00
25512;DHT22;13414;44.534;18.700;2023-02-03T06:42:32;2.30;99.90
25512;DHT22;13414;44.534;18.700;2023-02-03T06:44:59;2.30;1.00
25512;DHT22;13414;44.534;18.700;2023-02-03T06:47:27;2.20;99.90
25512;DHT22;13414;44.534;18.700;2023-02-03T06:49:54;2.20;1.00
25512;DHT22;13414;44.534;18.700;2023-02-03T06:52:23;2.30;1.00
25512;DHT22;13414;44.534;18.700;2023-02-03T06:54:51;2.40;99.90
25512;DHT22;13414;44.534;18.700;2023-02-03T06:57:18;2.60;99.90
25512;DHT22;13414;44.534;18.700;2023-02-03T06:59:46;2.80;99.90
25512;DHT22;13414;44.534;18.700;2023-02-03T07:02:13;3.00;1.00
25512;DHT22;13414;44.534;18.700;2023-02-03T07:04:41;3.20;1.00
25512;DHT22;13414;44.534;18.700;2023-02-03T07:07:10;3.50;33.10
25512;DHT22;13414;44.534;18.700;2023-02-03T07:09:39;3.70;1.00
25512;DHT22;13414;44.534;18.700;2023-02-03T07:12:07;3.80;1.00
25512;DHT22;13414;44.534;18.700;2023-02-03T07:14:35;3.90;1.00
25512;DHT22;13414;44.534;18.700;2023-02-03T07:17:04;4.00;1.00
25512;DHT22;13414;44.534;18.700;2023-02-03T07:19:32;4.20;99.90
25512;DHT22;13414;44.534;18.700;2023-02-03T07:21:59;4.30;84.30
25512;DHT22;13414;44.534;18.700;2023-02-03T07:24:27;4.60;1.00
25512;DHT22;13414;44.534;18.700;2023-02-03T07:26:56;4.70;99.90
25512;DHT22;13414;44.534;18.700;2023-02-03T07:29:23;4.70;1.00
25512;DHT22;13414;44.534;18.700;2023-02-03T07:31:50;4.70;1.00
25512;DHT22;13414;44.534;18.700;2023-02-03T07:34:18;4.80;1.00
25512;DHT22;13414;44.534;18.700;2023-02-03T07:36:45;4.80;1.00
25512;DHT22;13414;44.534;18.700;2023-02-03T07:39:13;5.00;1.00
25512;DHT22;13414;44.534;18.700;2023-02-03T07:41:40;4.80;1.00
25512;DHT22;13414;44.534;18.700;2023-02-03T07:44:09;4.90;1.00
25512;DHT22;13414;44.534;18.700;2023-02-03T07:46:36;5.00;1.00
25512;DHT22;13414;44.534;18.700;2023-02-03T07:49:10;5.20;1.00
25512;DHT22;13414;44.534;18.700;2023-02-03T07:51:37;5.20;99.90
25512;DHT22;13414;44.534;18.700;2023-02-03T07:54:05;5.00;99.90
25512;DHT22;13414;44.534;18.700;2023-02-03T07:56:32;5.00;99.90
25512;DHT22;13414;44.534;18.700;2023-02-03T07:59:00;5.00;99.90
25512;DHT22;13414;44.534;18.700;2023-02-03T08:01:29;5.20;1.00
25512;DHT22;13414;44.534;18.700;2023-02-03T08:03:57;5.40;99.90
25512;DHT22;13414;44.534;18.700;2023-02-03T08:06:27;5.60;99.90
25512;DHT22;13414;44.534;18.700;2023-02-03T08:08:55;5.70;80.80
25512;DHT22;13414;44.534;18.700;2023-02-03T08:11:22;5.70;1.00
25512;DHT22;13414;44.534;18.700;2023-02-03T08:13:50;5.70;60.00
25512;DHT22;13414;44.534;18.700;2023-02-03T08:16:17;5.80;1.00
25512;DHT22;13414;44.534;18.700;2023-02-03T08:18:46;5.70;1.00
25512;DHT22;13414;44.534;18.700;2023-02-03T08:21:14;5.60;1.00
25512;DHT22;13414;44.534;18.700;2023-02-03T08:23:42;5.70;1.00
25512;DHT22;13414;44.534;18.700;2023-02-03T08:26:09;5.70;1.00
25512;DHT22;13414;44.534;18.700;2023-02-03T08:28:36;5.80;1.00
25512;DHT22;13414;44.534;18.700;2023-02-03T08:31:09;5.90;1.00
25512;DHT22;13414;44.534;18.700;2023-02-03T08:33:36;5.90;1.00
25512;DHT22;13414;44.534;18.700;2023-02-03T08:36:06;5.80;1.00
25512;DHT22;13414;44.534;18.700;2023-02-03T08:38:34;5.80;1.00
25512;DHT22;13414;44.534;18.700;2023-02-03T08:41:07;5.70;1.00
25512;DHT22;13414;44.534;18.700;2023-02-03T08:43:35;5.80;1.00
25512;DHT22;13414;44.534;18.700;2023-02-03T08:46:03;5.90;1.00
25512;DHT22;13414;44.534;18.700;2023-02-03T08:48:31;6.00;1.00
25512;DHT22;13414;44.534;18.700;2023-02-03T08:50:58;6.10;1.00
25512;DHT22;13414;44.534;18.700;2023-02-03T08:53:27;6.30;1.00
25512;DHT22;13414;44.534;18.700;2023-02-03T08:55:54;6.30;1.00
25512;DHT22;13414;44.534;18.700;2023-02-03T08:58:22;6.50;1.00
25512;DHT22;13414;44.534;18.700;2023-02-03T09:00:49;6.60;1.00
25512;DHT22;13414;44.534;18.700;2023-02-03T09:03:18;6.90;1.00
25512;DHT22;13414;44.534;18.700;2023-02-03T09:05:45;7.10;1.00
25512;DHT22;13414;44.534;18.700;2023-02-03T09:08:13;7.30;1.00
25512;DHT22;13414;44.534;18.700;2023-02-03T09:10:42;7.30;1.00
25512;DHT22;13414;44.534;18.700;2023-02-03T09:13:09;7.40;1.00
25512;DHT22;13414;44.534;18.700;2023-02-03T09:15:36;7.40;1.00
25512;DHT22;13414;44.534;18.700;2023-02-03T09:18:08;7.20;1.00
25512;DHT22;13414;44.534;18.700;2023-02-03T09:20:35;7.20;1.00
25512;DHT22;13414;44.534;18.700;2023-02-03T09:23:03;7.40;1.00
25512;DHT22;13414;44.534;18.700;2023-02-03T09:25:31;7.40;1.00
25512;DHT22;13414;44.534;18.700;2023-02-03T09:28:01;7.40;1.00
25512;DHT22;13414;44.534;18.700;2023-02-03T09:30:29;7.50;1.00
25512;DHT22;13414;44.534;18.700;2023-02-03T09:32:56;7.40;1.00
25512;DHT22;13414;44.534;18.700;2023-02-03T09:35:27;7.30;1.00
25512;DHT22;13414;44.534;18.700;2023-02-03T09:37:55;7.30;1.00
25512;DHT22;13414;44.534;18.700;2023-02-03T09:40:32;7.40;1.00
25512;DHT22;13414;44.534;18.700;2023-02-03T09:43:11;7.50;1.00
25512;DHT22;13414;44.534;18.700;2023-02-03T09:45:41;7.60;1.00
25512;DHT22;13414;44.534;18.700;2023-02-03T09:48:12;7.60;1.00
25512;DHT22;13414;44.534;18.700;2023-02-03T09:50:42;7.60;1.00
25512;DHT22;13414;44.534;18.700;2023-02-03T09:53:20;7.70;1.00
25512;DHT22;13414;44.534;18.700;2023-02-03T09:55:50;7.70;1.00
25512;DHT22;13414;44.534;18.700;2023-02-03T09:58:20;7.70;1.00
25512;DHT22;13414;44.534;18.700;2023-02-03T10:00:50;7.60;1.00
25512;DHT22;13414;44.534;18.700;2023-02-03T10:03:27;7.50;1.00
25512;DHT22;13414;44.534;18.700;2023-02-03T10:06:13;7.50;1.00
25512;DHT22;13414;44.534;18.700;2023-02-03T10:09:00;7.50;1.00
25512;DHT22;13414;44.534;18.700;2023-02-03T10:11:45;7.50;1.00
25512;DHT22;13414;44.534;18.700;2023-02-03T10:14:31;7.60;1.00
25512;DHT22;13414;44.534;18.700;2023-02-03T10:17:10;7.60;1.00
25512;DHT22;13414;44.534;18.700;2023-02-03T10:19:45;7.60;1.00
25512;DHT22;13414;44.534;18.700;2023-02-03T10:22:16;7.70;1.00
25512;DHT22;13414;44.534;18.700;2023-02-03T10:24:48;7.90;1.00
25512;DHT22;13414;44.534;18.700;2023-02-03T10:27:19;7.90;1.00
25512;DHT22;13414;44.534;18.700;2023-02-03T10:29:54;7.90;1.00
25512;DHT22;13414;44.534;18.700;2023-02-03T10:32:25;7.80;1.00
25512;DHT22;13414;44.534;18.700;2023-02-03T10:35:01;7.90;1.00
25512;DHT22;13414;44.534;18.700;2023-02-03T10:37:33;7.90;1.00
25512;DHT22;13414;44.534;18.700;2023-02-03T10:40:04;7.90;1.00
25512;DHT22;13414;44.534;18.700;2023-02-03T10:42:33;7.90;1.00
25512;DHT22;13414;44.534;18.700;2023-02-03T10:45:16;7.70;1.00
25512;DHT22;13414;44.534;18.700;2023-02-03T10:47:46;7.90;1.00
25512;DHT22;13414;44.534;18.700;2023-02-03T10:50:16;8.20;1.00
25512;DHT22;13414;44.534;18.700;2023-02-03T10:52:44;8.70;1.00
25512;DHT22;13414;44.534;18.700;2023-02-03T10:55:29;9.00;1.00
25512;DHT22;13414;44.534;18.700;2023-02-03T10:57:57;9.20;1.00
25512;DHT22;13414;44.534;18.700;2023-02-03T11:00:34;9.20;1.00
25512;DHT22;13414;44.534;18.700;2023-02-03T11:03:05;9.50;1.00
25512;DHT22;13414;44.534;18.700;2023-02-03T11:05:33;9.60;1.00
25512;DHT22;13414;44.534;18.700;2023-02-03T11:08:01;9.50;1.00
25512;DHT22;13414;44.534;18.700;2023-02-03T11:10:33;9.60;1.00
25512;DHT22;13414;44.534;18.700;2023-02-03T11:13:19;9.90;1.00
25512;DHT22;13414;44.534;18.700;2023-02-03T11:15:54;10.10;1.00
25512;DHT22;13414;44.534;18.700;2023-02-03T11:18:26;10.30;1.00
25512;DHT22;13414;44.534;18.700;2023-02-03T11:20:58;10.30;1.00
25512;DHT22;13414;44.534;18.700;2023-02-03T11:23:26;9.90;1.00
25512;DHT22;13414;44.534;18.700;2023-02-03T11:25:53;9.70;1.00
25512;DHT22;13414;44.534;18.700;2023-02-03T11:28:26;9.60;1.00
25512;DHT22;13414;44.534;18.700;2023-02-03T11:30:57;9.30;1.00
25512;DHT22;13414;44.534;18.700;2023-02-03T11:33:26;9.30;1.00
25512;DHT22;13414;44.534;18.700;2023-02-03T11:35:56;9.30;1.00
25512;DHT22;13414;44.534;18.700;2023-02-03T11:38:31;9.20;1.00
25512;DHT22;13414;44.534;18.700;2023-02-03T11:41:02;9.30;1.00
25512;DHT22;13414;44.534;18.700;2023-02-03T11:43:30;9.30;1.00
25512;DHT22;13414;44.534;18.700;2023-02-03T11:46:02;8.90;1.00
25512;DHT22;13414;44.534;18.700;2023-02-03T11:48:35;8.80;1.00
25512;DHT22;13414;44.534;18.700;2023-02-03T11:51:12;8.90;1.00
25512;DHT22;13414;44.534;18.700;2023-02-03T11:53:57;8.90;1.00
25512;DHT22;13414;44.534;18.700;2023-02-03T11:56:53;8.70;1.00
25512;DHT22;13414;44.534;18.700;2023-02-03T11:59:40;8.80;1.00
25512;DHT22;13414;44.534;18.700;2023-02-03T12:08:23;9.00;1.00
25512;DHT22;13414;44.534;18.700;2023-02-03T12:11:03;9.20;1.00
25512;DHT22;13414;44.534;18.700;2023-02-03T12:13:48;9.50;1.00
25512;DHT22;13414;44.534;18.700;2023-02-03T12:16:33;9.80;1.00
25512;DHT22;13414;44.534;18.700;2023-02-03T12:19:11;9.90;1.00
25512;DHT22;13414;44.534;18.700;2023-02-03T12:21:46;10.10;1.00
25512;DHT22;13414;44.534;18.700;2023-02-03T12:24:23;10.00;99.90
25512;DHT22;13414;44.534;18.700;2023-02-03T12:27:00;10.00;1.00
25512;DHT22;13414;44.534;18.700;2023-02-03T12:29:32;9.90;99.90
25512;DHT22;13414;44.534;18.700;2023-02-03T12:32:09;9.80;99.90
25512;DHT22;13414;44.534;18.700;2023-02-03T12:34:42;9.80;99.90
25512;DHT22;13414;44.534;18.700;2023-02-03T12:37:16;9.80;99.90
25512;DHT22;13414;44.534;18.700;2023-02-03T12:39:52;10.00;1.00
25512;DHT22;13414;44.534;18.700;2023-02-03T12:42:25;10.10;99.90
25512;DHT22;13414;44.534;18.700;2023-02-03T12:44:57;10.00;99.90
25512;DHT22;13414;44.534;18.700;2023-02-03T12:47:30;10.00;99.90
25512;DHT22;13414;44.534;18.700;2023-02-03T12:50:04;10.00;99.90
25512;DHT22;13414;44.534;18.700;2023-02-03T12:52:36;10.10;99.90
25512;DHT22;13414;44.534;18.700;2023-02-03T12:55:17;10.20;99.90
25512;DHT22;13414;44.534;18.700;2023-02-03T12:57:50;10.30;99.90
25512;DHT22;13414;44.534;18.700;2023-02-03T13:00:28;10.50;99.90
25512;DHT22;13414;44.534;18.700;2023-02-03T13:03:05;10.50;99.90
25512;DHT22;13414;44.534;18.700;2023-02-03T13:05:41;10.30;99.90
25512;DHT22;13414;44.534;18.700;2023-02-03T13:08:19;10.30;99.90
25512;DHT22;13414;44.534;18.700;2023-02-03T13:10:52;10.50;99.90
25512;DHT22;13414;44.534;18.700;2023-02-03T13:13:28;10.70;99.90
25512;DHT22;13414;44.534;18.700;2023-02-03T13:16:00;10.60;99.90
25512;DHT22;13414;44.534;18.700;2023-02-03T13:18:32;10.70;99.90
25512;DHT22;13414;44.534;18.700;2023-02-03T13:21:00;10.70;99.90
25512;DHT22;13414;44.534;18.700;2023-02-03T13:23:29;10.70;99.90
25512;DHT22;13414;44.534;18.700;2023-02-03T13:26:18;10.70;99.90
25512;DHT22;13414;44.534;18.700;2023-02-03T13:29:16;10.60;99.90
25512;DHT22;13414;44.534;18.700;2023-02-03T13:32:00;10.60;99.90
25512;DHT22;13414;44.534;18.700;2023-02-03T13:34:52;10.60;99.90
25512;DHT22;13414;44.534;18.700;2023-02-03T13:37:50;10.60;99.90
25512;DHT22;13414;44.534;18.700;2023-02-03T13:40:39;10.60;99.90
25512;DHT22;13414;44.534;18.700;2023-02-03T13:43:14;10.50;99.90
25512;DHT22;13414;44.534;18.700;2023-02-03T13:45:45;10.50;99.90
25512;DHT22;13414;44.534;18.700;2023-02-03T13:48:29;10.60;99.90
25512;DHT22;13414;44.534;18.700;2023-02-03T13:51:04;10.70;99.90
25512;DHT22;13414;44.534;18.700;2023-02-03T13:53:34;10.80;99.90
25512;DHT22;13414;44.534;18.700;2023-02-03T13:56:06;10.90;99.90
25512;DHT22;13414;44.534;18.700;2023-02-03T13:58:37;10.90;99.90
25512;DHT22;13414;44.534;18.700;2023-02-03T14:01:27;10.80;99.90
25512;DHT22;13414;44.534;18.700;2023-02-03T14:03:55;10.80;99.90
25512;DHT22;13414;44.534;18.700;2023-02-03T14:06:57;10.80;99.90
25512;DHT22;13414;44.534;18.700;2023-02-03T14:10:08;10.80;99.90
25512;DHT22;13414;44.534;18.700;2023-02-03T14:12:57;10.80;99.90
25512;DHT22;13414;44.534;18.700;2023-02-03T14:15:30;10.80;99.90
25512;DHT22;13414;44.534;18.700;2023-02-03T14:18:01;10.70;99.90
25512;DHT22;13414;44.534;18.700;2023-02-03T14:20:48;10.80;99.90
25512;DHT22;13414;44.534;18.700;2023-02-03T14:23:20;10.80;99.90
25512;DHT22;13414;44.534;18.700;2023-02-03T14:25:55;10.80;99.90
25512;DHT22;13414;44.534;18.700;2023-02-03T14:28:36;10.60;99.90
25512;DHT22;13414;44.534;18.700;2023-02-03T14:31:11;10.50;99.90
25512;DHT22;13414;44.534;18.700;2023-02-03T14:34:09;10.50;99.90
25512;DHT22;13414;44.534;18.700;2023-02-03T14:36:52;10.40;99.90
25512;DHT22;13414;44.534;18.700;2023-02-03T14:39:35;10.30;99.90
25512;DHT22;13414;44.534;18.700;2023-02-03T14:45:13;10.10;99.90
25512;DHT22;13414;44.534;18.700;2023-02-03T14:47:59;10.00;99.90
25512;DHT22;13414;44.534;18.700;2023-02-03T14:50:45;9.90;99.90
25512;DHT22;13414;44.534;18.700;2023-02-03T14:53:32;9.90;99.90
25512;DHT22;13414;44.534;18.700;2023-02-03T14:56:12;9.80;99.90
25512;DHT22;13414;44.534;18.700;2023-02-03T14:58:48;9.70;99.90
25512;DHT22;13414;44.534;18.700;2023-02-03T15:01:25;9.70;99.90
25512;DHT22;13414;44.534;18.700;2023-02-03T15:04:22;9.50;99.90
25512;DHT22;13414;44.534;18.700;2023-02-03T15:06:51;9.40;99.90
25512;DHT22;13414;44.534;18.700;2023-02-03T15:09:27;9.30;99.90
25512;DHT22;13414;44.534;18.700;2023-02-03T15:11:56;9.30;99.90
25512;DHT22;13414;44.534;18.700;2023-02-03T15:14:25;9.30;99.90
25512;DHT22;13414;44.534;18.700;2023-02-03T15:16:59;9.20;99.90
25512;DHT22;13414;44.534;18.700;2023-02-03T15:19:31;9.20;99.90
25512;DHT22;13414;44.534;18.700;2023-02-03T15:22:00;9.10;99.90
25512;DHT22;13414;44.534;18.700;2023-02-03T15:24:34;9.10;99.90
25512;DHT22;13414;44.534;18.700;2023-02-03T15:27:02;9.00;99.90
25512;DHT22;13414;44.534;18.700;2023-02-03T15:29:31;9.00;99.90
25512;DHT22;13414;44.534;18.700;2023-02-03T15:32:08;8.90;99.90
25512;DHT22;13414;44.534;18.700;2023-02-03T15:34:40;8.80;99.90
25512;DHT22;13414;44.534;18.700;2023-02-03T15:37:14;8.80;99.90
25512;DHT22;13414;44.534;18.700;2023-02-03T15:39:51;8.80;99.90
25512;DHT22;13414;44.534;18.700;2023-02-03T15:42:27;8.70;99.90
25512;DHT22;13414;44.534;18.700;2023-02-03T15:44:58;8.70;99.90
25512;DHT22;13414;44.534;18.700;2023-02-03T15:47:31;8.70;99.90
25512;DHT22;13414;44.534;18.700;2023-02-03T15:50:06;8.60;99.90
25512;DHT22;13414;44.534;18.700;2023-02-03T15:52:36;8.60;99.90
25512;DHT22;13414;44.534;18.700;2023-02-03T15:55:15;8.50;99.90
25512;DHT22;13414;44.534;18.700;2023-02-03T15:57:48;8.50;99.90
25512;DHT22;13414;44.534;18.700;2023-02-03T16:00:30;8.40;1.00
25512;DHT22;13414;44.534;18.700;2023-02-03T16:03:02;8.40;1.00
25512;DHT22;13414;44.534;18.700;2023-02-03T16:05:33;8.30;1.00
25512;DHT22;13414;44.534;18.700;2023-02-03T16:08:24;8.30;1.00
25512;DHT22;13414;44.534;18.700;2023-02-03T16:10:52;8.20;1.00
25512;DHT22;13414;44.534;18.700;2023-02-03T16:13:20;8.20;1.00
25512;DHT22;13414;44.534;18.700;2023-02-03T16:16:04;8.10;1.00
25512;DHT22;13414;44.534;18.700;2023-02-03T16:18:35;8.10;1.00
25512;DHT22;13414;44.534;18.700;2023-02-03T16:21:04;8.00;1.00
25512;DHT22;13414;44.534;18.700;2023-02-03T16:23:31;7.90;1.00